Time;durP1;ratioP1;P1;durP2;ratioP2;P2;SDS_P1;SDS_P2;PMS_P1;PMS_P2;Temp;Humidity;BMP_temperature;BMP_pressure;BME280_temperature;BME280_humidity;BME280_pressure;Samples;Min_cycle;Max_cycle;Signal;HPM_P1;HPM_P2
2021/09/29 00:00:49;;;;;;;5.95;5.45;;;15.60;98.50;;;;;;5017900;28;21033;-74
2021/09/29 00:03:16;;;;;;;8.07;5.43;;;15.60;98.50;;;;;;5015612;28;20193;-75
2021/09/29 00:05:43;;;;;;;6.60;5.97;;;15.50;98.50;;;;;;5017768;28;20184;-73
2021/09/29 00:08:10;;;;;;;5.68;5.22;;;15.50;98.50;;;;;;5016654;28;20208;-75
2021/09/29 00:10:38;;;;;;;5.10;4.55;;;15.50;98.50;;;;;;5013762;28;20701;-74
2021/09/29 00:13:04;;;;;;;8.43;5.20;;;15.50;98.50;;;;;;5013169;28;20239;-72
2021/09/29 00:15:30;;;;;;;6.13;5.32;;;15.50;98.30;;;;;;5019873;28;20239;-72
2021/09/29 00:17:56;;;;;;;5.00;4.60;;;15.50;98.50;;;;;;5013224;28;20204;-73
2021/09/29 00:20:22;;;;;;;5.80;4.22;;;15.50;98.10;;;;;;5011493;28;20208;-74
2021/09/29 00:22:48;;;;;;;5.55;4.95;;;15.50;98.10;;;;;;5015398;28;20184;-75
2021/09/29 00:25:15;;;;;;;5.35;4.85;;;15.50;98.30;;;;;;5020613;28;20188;-75
2021/09/29 00:27:41;;;;;;;5.75;5.15;;;15.50;98.10;;;;;;5012391;28;20290;-75
2021/09/29 00:30:09;;;;;;;5.43;4.97;;;15.50;97.80;;;;;;5016465;28;20189;-74
2021/09/29 00:32:39;;;;;;;4.53;4.05;;;15.50;98.00;;;;;;5011131;28;20181;-74
2021/09/29 00:35:05;;;;;;;5.18;4.88;;;15.50;98.30;;;;;;5014585;28;20215;-74
2021/09/29 00:37:31;;;;;;;4.13;3.83;;;15.40;97.70;;;;;;5012997;28;20189;-74
2021/09/29 00:39:57;;;;;;;3.53;3.33;;;15.40;97.40;;;;;;5015516;28;21015;-74
2021/09/29 00:42:23;;;;;;;10.43;4.38;;;15.50;97.90;;;;;;5018172;28;20187;-74
2021/09/29 00:44:52;;;;;;;5.25;4.78;;;15.40;97.70;;;;;;5018790;28;20195;-74
2021/09/29 00:47:19;;;;;;;3.17;3.08;;;15.40;97.50;;;;;;5014717;28;20181;-74
2021/09/29 00:49:45;;;;;;;4.03;3.72;;;15.40;97.20;;;;;;5017821;28;20211;-73
2021/09/29 00:52:10;;;;;;;4.30;3.47;;;15.40;97.30;;;;;;5021985;28;20204;-74
2021/09/29 00:54:36;;;;;;;3.70;3.50;;;15.30;96.80;;;;;;5017837;28;20682;-74
2021/09/29 00:57:02;;;;;;;4.22;3.47;;;15.30;96.80;;;;;;5017242;28;20176;-74
2021/09/29 00:59:28;;;;;;;3.30;3.10;;;15.30;97.10;;;;;;5018305;28;20203;-74
2021/09/29 01:01:56;;;;;;;4.20;3.20;;;15.30;97.00;;;;;;5018023;28;20219;-74
2021/09/29 01:04:25;;;;;;;2.78;2.67;;;15.30;96.70;;;;;;5012721;28;20185;-74
2021/09/29 01:07:41;;;;;;;2.42;2.33;;;15.20;96.90;;;;;;5016065;28;20246;-74
2021/09/29 01:10:36;;;;;;;2.67;2.55;;;15.20;96.60;;;;;;4995576;28;20233;-74
2021/09/29 01:13:05;;;;;;;2.80;2.60;;;15.20;96.80;;;;;;4995648;28;20773;-74
2021/09/29 01:15:35;;;;;;;2.88;2.75;;;15.20;97.10;;;;;;4996494;28;20196;-74
2021/09/29 01:18:06;;;;;;;2.70;2.47;;;15.20;96.80;;;;;;4999122;28;20208;-74
2021/09/29 01:20:40;;;;;;;2.75;2.38;;;15.20;97.10;;;;;;4994593;28;20877;-73
2021/09/29 01:23:17;;;;;;;2.85;2.67;;;15.20;96.50;;;;;;5000676;28;20181;-73
2021/09/29 01:25:58;;;;;;;2.35;2.28;;;15.20;96.80;;;;;;5000718;28;20750;-74
2021/09/29 01:28:35;;;;;;;2.25;2.13;;;15.20;96.10;;;;;;4993220;28;20229;-73
2021/09/29 01:31:02;;;;;;;1.77;1.77;;;15.10;95.50;;;;;;4996784;28;20189;-75
2021/09/29 01:33:30;;;;;;;2.42;2.25;;;15.20;96.30;;;;;;4998033;28;20328;-75
2021/09/29 01:35:56;;;;;;;2.47;2.40;;;15.30;96.50;;;;;;4999095;28;20189;-75
2021/09/29 01:38:23;;;;;;;3.13;2.58;;;15.30;96.60;;;;;;4994233;28;20178;-74
2021/09/29 01:40:48;;;;;;;2.47;2.35;;;15.30;96.40;;;;;;5007782;28;20204;-74
2021/09/29 01:43:14;;;;;;;1.90;1.90;;;15.30;96.40;;;;;;5019864;28;20663;-73
2021/09/29 01:45:43;;;;;;;2.97;2.70;;;15.40;96.50;;;;;;5022346;28;20177;-73
2021/09/29 01:48:09;;;;;;;2.50;2.30;;;15.30;96.30;;;;;;5017967;28;20292;-73
2021/09/29 01:50:36;;;;;;;2.55;2.25;;;15.30;96.30;;;;;;5013611;28;20722;-73
2021/09/29 01:53:02;;;;;;;2.08;1.98;;;15.30;96.00;;;;;;5016432;28;20177;-75
2021/09/29 01:55:29;;;;;;;1.90;1.80;;;15.30;95.80;;;;;;5018456;28;20180;-75
2021/09/29 01:57:56;;;;;;;1.80;1.70;;;15.30;95.70;;;;;;5019384;28;20552;-73
2021/09/29 02:00:23;;;;;;;2.58;2.15;;;15.30;95.40;;;;;;5016393;28;20181;-72
2021/09/29 02:02:49;;;;;;;2.25;2.13;;;15.20;95.40;;;;;;5019230;28;20267;-74
2021/09/29 02:05:30;;;;;;;2.25;2.15;;;15.20;95.30;;;;;;5016547;28;20169;-73
2021/09/29 02:07:56;;;;;;;2.10;2.00;;;15.10;95.20;;;;;;5016061;28;20234;-72
2021/09/29 02:10:22;;;;;;;2.00;1.90;;;15.10;95.80;;;;;;5017580;28;20172;-72
2021/09/29 02:12:48;;;;;;;1.85;1.85;;;15.10;95.60;;;;;;5015533;28;20648;-73
2021/09/29 02:15:13;;;;;;;1.70;1.70;;;15.10;95.70;;;;;;5018172;28;20212;-72
2021/09/29 02:17:39;;;;;;;2.15;1.92;;;15.00;95.70;;;;;;5017230;28;20196;-73
2021/09/29 02:20:05;;;;;;;1.83;1.83;;;15.00;95.80;;;;;;5013773;28;20177;-73
2021/09/29 02:22:31;;;;;;;2.42;1.77;;;15.00;95.50;;;;;;5017864;28;20196;-73
2021/09/29 02:24:57;;;;;;;2.33;1.95;;;15.00;95.40;;;;;;5020867;28;20177;-72
2021/09/29 02:27:22;;;;;;;2.05;1.95;;;15.00;95.50;;;;;;5016049;28;20177;-73
2021/09/29 02:29:48;;;;;;;1.88;1.88;;;14.90;95.70;;;;;;5018327;28;20184;-74
2021/09/29 02:32:14;;;;;;;2.08;1.98;;;14.90;95.50;;;;;;5015271;28;20180;-74
2021/09/29 02:34:40;;;;;;;1.83;1.77;;;14.90;95.60;;;;;;5016395;28;20181;-74
2021/09/29 02:37:06;;;;;;;2.15;2.05;;;14.90;95.50;;;;;;5013310;28;20177;-73
2021/09/29 02:39:32;;;;;;;2.38;2.15;;;14.80;95.30;;;;;;5017033;28;20193;-73
2021/09/29 02:41:58;;;;;;;2.10;2.10;;;14.80;94.90;;;;;;5015513;28;20184;-73
2021/09/29 02:44:24;;;;;;;2.05;1.95;;;14.80;94.80;;;;;;5013122;28;20177;-74
2021/09/29 02:46:49;;;;;;;1.70;1.70;;;14.70;94.90;;;;;;5018114;28;20192;-74
2021/09/29 02:49:15;;;;;;;2.63;1.88;;;14.70;94.80;;;;;;5013269;28;20625;-74
2021/09/29 02:51:41;;;;;;;1.98;1.88;;;14.70;94.90;;;;;;5014765;28;20184;-74
2021/09/29 02:54:07;;;;;;;2.25;2.15;;;14.60;94.80;;;;;;5015822;28;20183;-74
2021/09/29 02:56:33;;;;;;;1.50;1.50;;;14.60;94.90;;;;;;5013117;28;20582;-74
2021/09/29 02:58:58;;;;;;;2.45;1.95;;;14.60;95.00;;;;;;5014881;28;20188;-74
2021/09/29 03:01:24;;;;;;;1.60;1.50;;;14.50;95.20;;;;;;5012842;28;20184;-75
2021/09/29 03:03:50;;;;;;;1.30;1.30;;;14.50;95.20;;;;;;5010878;28;20204;-75
2021/09/29 03:06:16;;;;;;;0.90;0.90;;;14.50;95.20;;;;;;5014456;28;20628;-75
2021/09/29 03:08:42;;;;;;;1.70;1.70;;;14.50;95.20;;;;;;5009097;28;20217;-73
2021/09/29 03:11:09;;;;;;;1.45;1.42;;;14.50;95.40;;;;;;5015778;28;20187;-75
2021/09/29 03:13:35;;;;;;;1.55;1.50;;;14.50;95.20;;;;;;5016090;28;20195;-74
2021/09/29 03:16:01;;;;;;;1.80;1.70;;;14.50;95.40;;;;;;5016576;28;20684;-75
2021/09/29 03:18:27;;;;;;;1.30;1.30;;;14.40;95.20;;;;;;5015168;28;20270;-74
2021/09/29 03:20:52;;;;;;;1.48;1.48;;;14.40;95.20;;;;;;5015116;28;20185;-74
2021/09/29 03:23:18;;;;;;;1.77;1.67;;;14.40;95.20;;;;;;5012956;28;20235;-74
2021/09/29 03:25:46;;;;;;;2.20;1.60;;;14.40;95.00;;;;;;5016000;28;20191;-74
2021/09/29 03:28:12;;;;;;;1.58;1.58;;;14.40;95.20;;;;;;5013928;28;20231;-74
2021/09/29 03:30:38;;;;;;;1.10;1.10;;;14.30;94.90;;;;;;5016990;28;20173;-74
2021/09/29 03:33:06;;;;;;;1.42;1.42;;;14.30;94.90;;;;;;5011276;28;20187;-74
2021/09/29 03:35:34;;;;;;;1.75;1.65;;;14.30;95.40;;;;;;5018393;28;20271;-74
2021/09/29 03:38:00;;;;;;;2.80;1.73;;;14.30;95.50;;;;;;5014920;28;20677;-74
2021/09/29 03:40:26;;;;;;;1.90;1.83;;;14.30;95.40;;;;;;5015088;28;20189;-75
2021/09/29 03:42:52;;;;;;;1.88;1.77;;;14.20;95.40;;;;;;5016849;28;20260;-74
2021/09/29 03:45:18;;;;;;;2.80;1.98;;;14.20;95.40;;;;;;5017055;28;20272;-74
2021/09/29 03:47:44;;;;;;;3.25;1.70;;;14.20;95.50;;;;;;5017322;28;20216;-75
2021/09/29 03:50:11;;;;;;;1.60;1.48;;;14.20;95.60;;;;;;5018350;28;20219;-74
2021/09/29 03:52:38;;;;;;;1.45;1.45;;;14.30;95.50;;;;;;5019638;28;20192;-74
2021/09/29 03:55:04;;;;;;;2.10;2.00;;;14.30;95.40;;;;;;5016232;28;20178;-74
2021/09/29 03:57:30;;;;;;;1.85;1.75;;;14.30;95.50;;;;;;5015912;28;20188;-74
2021/09/29 03:59:56;;;;;;;1.77;1.67;;;14.30;95.40;;;;;;5010145;28;20251;-74
2021/09/29 04:02:21;;;;;;;1.70;1.70;;;14.30;95.40;;;;;;5011396;28;20180;-74
2021/09/29 04:04:47;;;;;;;1.98;1.88;;;14.30;95.20;;;;;;5003845;28;20199;-75
2021/09/29 04:07:13;;;;;;;1.80;1.70;;;14.30;95.40;;;;;;5006451;28;20185;-75
2021/09/29 04:09:38;;;;;;;1.90;1.90;;;14.30;95.40;;;;;;5006366;28;20221;-74
2021/09/29 04:12:04;;;;;;;1.63;1.63;;;14.40;95.40;;;;;;5008113;28;20201;-74
2021/09/29 04:14:30;;;;;;;5.32;2.22;;;14.30;95.40;;;;;;5006052;28;20199;-74
2021/09/29 04:16:56;;;;;;;2.25;2.15;;;14.40;95.40;;;;;;5010117;28;20255;-75
2021/09/29 04:19:21;;;;;;;1.83;1.83;;;14.40;95.40;;;;;;5009643;28;20208;-74
2021/09/29 04:21:47;;;;;;;2.78;2.30;;;14.40;95.40;;;;;;5013095;28;20260;-74
2021/09/29 04:24:13;;;;;;;2.75;2.55;;;14.40;95.20;;;;;;5014112;28;20224;-73
2021/09/29 04:26:39;;;;;;;2.30;2.28;;;14.40;95.40;;;;;;5013088;28;20185;-73
2021/09/29 04:29:05;;;;;;;2.58;2.42;;;14.40;95.20;;;;;;5012215;28;20244;-72
2021/09/29 04:31:31;;;;;;;4.70;2.60;;;14.40;95.20;;;;;;5009969;28;20190;-75
2021/09/29 04:33:57;;;;;;;3.78;2.72;;;14.40;94.90;;;;;;5006675;28;20181;-72
2021/09/29 04:36:25;;;;;;;2.00;1.90;;;14.40;95.00;;;;;;5012313;28;20550;-73
2021/09/29 04:38:51;;;;;;;3.10;2.08;;;14.40;95.20;;;;;;5004142;28;20192;-73
2021/09/29 04:41:17;;;;;;;2.35;2.25;;;14.40;94.90;;;;;;5006585;28;20172;-73
2021/09/29 04:43:42;;;;;;;2.80;2.60;;;14.40;94.70;;;;;;5007074;28;20267;-73
2021/09/29 04:46:08;;;;;;;5.55;2.42;;;14.40;94.60;;;;;;5007530;28;20251;-73
2021/09/29 04:48:34;;;;;;;2.90;2.65;;;14.40;94.70;;;;;;5008996;28;20445;-74
2021/09/29 04:51:00;;;;;;;2.90;2.70;;;14.40;94.50;;;;;;5001003;28;20181;-75
2021/09/29 04:53:26;;;;;;;2.85;2.72;;;14.40;94.10;;;;;;5006874;28;20193;-74
2021/09/29 04:55:52;;;;;;;3.28;2.88;;;14.50;94.00;;;;;;5007903;28;20581;-73
2021/09/29 04:58:18;;;;;;;2.97;2.85;;;14.40;94.00;;;;;;5007491;28;20188;-74
2021/09/29 05:00:44;;;;;;;2.88;2.67;;;14.30;93.90;;;;;;5011504;28;20177;-73
2021/09/29 05:03:11;;;;;;;3.25;2.95;;;14.30;94.10;;;;;;5008681;28;20239;-74
2021/09/29 05:05:37;;;;;;;3.08;2.88;;;14.30;94.20;;;;;;5005562;28;20249;-73
2021/09/29 05:08:05;;;;;;;3.42;3.17;;;14.30;94.20;;;;;;5006025;28;20715;-76
2021/09/29 05:11:03;;;;;;;2.85;2.75;;;14.30;94.10;;;;;;5002719;28;20208;-70
2021/09/29 05:13:31;;;;;;;2.47;2.38;;;14.30;94.00;;;;;;5010960;28;20192;-72
2021/09/29 05:15:58;;;;;;;3.55;2.88;;;14.30;94.00;;;;;;5013092;28;20186;-72
2021/09/29 05:18:24;;;;;;;2.63;2.53;;;14.30;94.10;;;;;;5016074;28;20185;-72
2021/09/29 05:20:50;;;;;;;3.15;2.95;;;14.30;94.00;;;;;;5013818;28;20208;-71
2021/09/29 05:23:15;;;;;;;2.95;2.85;;;14.30;94.10;;;;;;5016996;28;21581;-72
2021/09/29 05:25:42;;;;;;;2.63;2.30;;;14.30;94.10;;;;;;5015631;28;20181;-72
2021/09/29 05:28:11;;;;;;;2.90;2.70;;;14.30;94.00;;;;;;5009833;28;20298;-71
2021/09/29 05:30:36;;;;;;;2.63;2.50;;;14.30;93.90;;;;;;5009698;28;20276;-71
2021/09/29 05:33:02;;;;;;;3.15;2.92;;;14.30;94.00;;;;;;5009498;28;20263;-73
2021/09/29 05:35:28;;;;;;;2.83;2.50;;;14.40;94.00;;;;;;5008985;28;20254;-74
2021/09/29 05:37:54;;;;;;;2.97;2.78;;;14.40;94.00;;;;;;5012905;28;20188;-74
2021/09/29 05:40:20;;;;;;;2.55;2.42;;;14.40;94.20;;;;;;5010838;28;20184;-76
2021/09/29 05:42:45;;;;;;;2.88;2.47;;;14.40;93.80;;;;;;5018660;28;20855;-76
2021/09/29 05:45:11;;;;;;;3.17;2.90;;;14.50;93.80;;;;;;5014415;28;20188;-75
2021/09/29 05:47:37;;;;;;;3.10;2.90;;;14.50;93.60;;;;;;5016839;28;20212;-75
2021/09/29 05:50:04;;;;;;;2.75;2.42;;;14.50;93.60;;;;;;5011335;28;20176;-75
2021/09/29 05:52:31;;;;;;;3.33;2.67;;;14.50;93.50;;;;;;5010400;28;20914;-72
2021/09/29 05:54:57;;;;;;;3.47;2.22;;;14.50;93.60;;;;;;5015880;28;20651;-72
2021/09/29 05:57:23;;;;;;;2.65;2.50;;;14.50;93.70;;;;;;5019949;28;20231;-73
2021/09/29 05:59:50;;;;;;;2.90;2.80;;;14.40;93.30;;;;;;5014999;28;20271;-72
2021/09/29 06:02:16;;;;;;;3.67;3.45;;;14.40;93.40;;;;;;5020982;28;20173;-72
2021/09/29 06:04:42;;;;;;;3.70;3.40;;;14.40;93.50;;;;;;5019336;28;20184;-72
2021/09/29 06:07:10;;;;;;;3.25;3.05;;;14.50;93.60;;;;;;5021001;28;20192;-72
2021/09/29 06:09:40;;;;;;;6.63;2.95;;;14.50;93.40;;;;;;5014853;28;20248;-72
2021/09/29 06:12:07;;;;;;;2.67;2.50;;;14.50;93.60;;;;;;5010125;28;20192;-72
2021/09/29 06:14:34;;;;;;;2.45;2.30;;;14.50;93.40;;;;;;5017555;28;20323;-73
2021/09/29 06:17:11;;;;;;;1.88;1.77;;;14.50;93.50;;;;;;5020987;28;20285;-72
2021/09/29 06:19:38;;;;;;;2.55;2.42;;;14.50;93.30;;;;;;5010574;28;20399;-72
2021/09/29 06:22:05;;;;;;;2.20;2.10;;;14.50;93.20;;;;;;5018967;28;20191;-72
2021/09/29 06:24:31;;;;;;;2.10;1.90;;;14.50;93.20;;;;;;5014825;28;20176;-72
2021/09/29 06:26:57;;;;;;;4.30;2.22;;;14.60;93.10;;;;;;5014005;28;20184;-72
2021/09/29 06:29:23;;;;;;;2.35;2.25;;;14.60;93.00;;;;;;5019000;28;20208;-72
2021/09/29 06:31:52;;;;;;;3.17;2.10;;;14.60;93.00;;;;;;5017909;28;20350;-72
2021/09/29 06:34:17;;;;;;;2.45;2.25;;;14.70;92.80;;;;;;5014759;28;20267;-72
2021/09/29 06:36:43;;;;;;;5.28;2.28;;;14.70;92.70;;;;;;5017500;28;20257;-72
2021/09/29 06:39:09;;;;;;;2.15;2.05;;;14.80;92.80;;;;;;5019367;28;20215;-73
2021/09/29 06:41:35;;;;;;;1.83;1.73;;;14.80;92.60;;;;;;5021088;28;20173;-72
2021/09/29 06:44:01;;;;;;;4.80;2.35;;;14.80;92.60;;;;;;5020278;28;20181;-73
2021/09/29 06:46:26;;;;;;;2.20;2.10;;;14.90;92.70;;;;;;5015351;28;20173;-72
2021/09/29 06:48:52;;;;;;;2.35;2.15;;;14.90;92.50;;;;;;5014922;28;20289;-72
2021/09/29 06:51:18;;;;;;;2.08;2.00;;;15.00;92.60;;;;;;5019400;28;20184;-72
2021/09/29 06:53:44;;;;;;;1.80;1.80;;;15.00;92.00;;;;;;5020309;28;20280;-72
2021/09/29 06:56:09;;;;;;;1.70;1.67;;;15.00;92.10;;;;;;5019650;28;20181;-73
2021/09/29 06:58:36;;;;;;;2.45;2.35;;;15.00;92.10;;;;;;5017323;28;20188;-73
2021/09/29 07:01:02;;;;;;;1.83;1.80;;;15.00;92.00;;;;;;5015104;28;20173;-73
2021/09/29 07:03:28;;;;;;;2.25;2.15;;;15.10;92.20;;;;;;5020958;28;20185;-72
2021/09/29 07:05:56;;;;;;;2.38;2.28;;;15.10;92.20;;;;;;5015226;28;20253;-71
2021/09/29 07:08:22;;;;;;;2.30;2.13;;;15.20;92.00;;;;;;5016069;28;20774;-72
2021/09/29 07:10:48;;;;;;;2.53;2.10;;;15.20;91.60;;;;;;5016838;28;20972;-72
2021/09/29 07:13:14;;;;;;;2.17;2.08;;;15.30;91.50;;;;;;5013134;28;20232;-73
2021/09/29 07:15:40;;;;;;;2.38;2.28;;;15.30;91.50;;;;;;5015801;28;20208;-70
2021/09/29 07:18:08;;;;;;;2.40;2.13;;;15.40;91.20;;;;;;5014126;28;20251;-70
2021/09/29 07:20:33;;;;;;;2.15;2.08;;;15.50;91.20;;;;;;5014193;28;20177;-72
2021/09/29 07:22:59;;;;;;;2.72;2.53;;;15.50;91.10;;;;;;5011311;28;20230;-73
2021/09/29 07:25:28;;;;;;;2.72;2.63;;;15.50;90.60;;;;;;5011403;28;20176;-72
2021/09/29 07:27:54;;;;;;;2.85;2.67;;;15.50;90.10;;;;;;5011222;28;20299;-72
2021/09/29 07:30:20;;;;;;;2.67;2.58;;;15.50;90.80;;;;;;5013468;28;20188;-72
2021/09/29 07:32:46;;;;;;;3.45;3.13;;;15.50;90.80;;;;;;5012187;28;20177;-72
2021/09/29 07:35:13;;;;;;;3.15;2.92;;;15.50;90.40;;;;;;5014505;28;20180;-72
2021/09/29 07:37:39;;;;;;;2.55;2.45;;;15.50;90.80;;;;;;5011513;28;20183;-72
2021/09/29 07:40:06;;;;;;;3.33;3.15;;;15.50;91.20;;;;;;5014096;28;20259;-72
2021/09/29 07:42:32;;;;;;;3.30;2.47;;;15.60;91.00;;;;;;5017150;28;20662;-72
2021/09/29 07:44:57;;;;;;;3.08;2.88;;;15.60;90.70;;;;;;5011373;28;20208;-73
2021/09/29 07:47:23;;;;;;;3.72;3.53;;;15.70;90.70;;;;;;5018505;28;20180;-73
2021/09/29 07:49:49;;;;;;;2.63;2.53;;;15.80;90.50;;;;;;5013442;28;20216;-73
2021/09/29 07:52:14;;;;;;;2.65;2.55;;;15.90;90.30;;;;;;5018545;28;20320;-73
2021/09/29 07:54:40;;;;;;;3.65;3.35;;;15.90;89.70;;;;;;5013622;28;20191;-72
2021/09/29 07:57:06;;;;;;;3.05;2.95;;;16.00;90.00;;;;;;5009089;28;20188;-72
2021/09/29 07:59:32;;;;;;;5.47;2.80;;;16.10;90.00;;;;;;5013175;28;20182;-73
2021/09/29 08:01:57;;;;;;;4.70;3.10;;;16.20;89.70;;;;;;5017669;28;20176;-72
2021/09/29 08:04:23;;;;;;;2.85;2.75;;;16.20;89.50;;;;;;5017126;28;20175;-72
2021/09/29 08:06:49;;;;;;;3.13;3.03;;;16.20;89.20;;;;;;5011766;28;20251;-72
2021/09/29 08:09:15;;;;;;;3.05;2.85;;;16.20;89.50;;;;;;5016959;28;20647;-72
2021/09/29 08:11:41;;;;;;;7.82;3.47;;;16.20;89.30;;;;;;5013375;28;20185;-73
2021/09/29 08:14:07;;;;;;;4.07;3.25;;;16.20;89.10;;;;;;5011591;28;20238;-73
2021/09/29 08:16:33;;;;;;;3.67;3.47;;;16.20;88.90;;;;;;5014924;28;20180;-72
2021/09/29 08:18:58;;;;;;;3.25;3.05;;;16.10;88.90;;;;;;5015193;28;20191;-70
2021/09/29 08:21:28;;;;;;;3.53;3.13;;;16.10;89.70;;;;;;5011018;28;20180;-73
2021/09/29 08:24:10;;;;;;;3.15;2.95;;;16.10;89.30;;;;;;5014214;28;20176;-72
2021/09/29 08:40:18;;;;;;;3.63;3.42;;;16.30;88.20;;;;;;5010621;28;20203;-72
2021/09/29 08:50:26;;;;;;;3.25;3.15;;;16.50;88.10;;;;;;5013268;28;20669;-71
2021/09/29 09:18:21;;;;;;;3.38;3.17;;;16.50;87.70;;;;;;4963777;28;20186;-73
2021/09/29 09:20:53;;;;;;;4.38;3.65;;;16.60;87.60;;;;;;4963800;28;20201;-74
2021/09/29 09:23:21;;;;;;;3.88;3.58;;;16.60;87.40;;;;;;4967133;28;20202;-72
2021/09/29 09:25:47;;;;;;;7.28;3.45;;;16.70;86.40;;;;;;4965384;28;20277;-73
2021/09/29 09:28:27;;;;;;;5.45;3.50;;;16.80;86.90;;;;;;4964632;28;20441;-73
2021/09/29 09:30:52;;;;;;;4.18;3.20;;;16.80;86.80;;;;;;4963781;28;20190;-73
2021/09/29 09:33:26;;;;;;;4.88;3.22;;;16.90;87.10;;;;;;4964447;28;20695;-72
2021/09/29 09:35:51;;;;;;;3.97;3.65;;;16.90;86.40;;;;;;4967934;28;20197;-73
2021/09/29 09:38:24;;;;;;;4.32;4.10;;;17.00;86.30;;;;;;4973090;28;20191;-73
2021/09/29 09:41:01;;;;;;;3.33;3.03;;;17.10;86.00;;;;;;5000112;28;20886;-73
2021/09/29 09:43:29;;;;;;;3.80;3.50;;;17.10;85.80;;;;;;5013330;28;20584;-73
2021/09/29 09:45:56;;;;;;;3.65;3.03;;;17.20;86.00;;;;;;5012021;28;20180;-73
2021/09/29 09:48:27;;;;;;;4.13;3.72;;;17.30;86.00;;;;;;5015088;28;20661;-74
2021/09/29 09:51:07;;;;;;;3.38;3.20;;;17.30;85.70;;;;;;5011197;28;20216;-72
2021/09/29 09:53:34;;;;;;;4.13;3.83;;;17.40;85.10;;;;;;5011070;28;20189;-73
2021/09/29 09:56:13;;;;;;;3.70;3.40;;;17.40;85.10;;;;;;5011904;28;20522;-73
2021/09/29 09:58:49;;;;;;;3.10;2.95;;;17.50;84.50;;;;;;5006821;28;20580;-73
2021/09/29 10:01:19;;;;;;;3.47;3.17;;;17.50;84.40;;;;;;5009806;28;20207;-73
2021/09/29 10:03:47;;;;;;;3.60;3.40;;;17.50;84.70;;;;;;5013738;28;20184;-73
2021/09/29 10:06:13;;;;;;;3.63;3.38;;;17.50;85.30;;;;;;5011369;28;20405;-73
2021/09/29 10:08:41;;;;;;;4.18;3.78;;;17.60;84.60;;;;;;5010614;28;20219;-74
2021/09/29 10:11:18;;;;;;;5.68;3.38;;;17.60;84.30;;;;;;5012727;28;20185;-73
2021/09/29 10:27:57;;;;;;;5.13;3.97;;;17.80;84.50;;;;;;5012177;28;20205;-74
2021/09/29 10:31:01;;;;;;;4.30;3.95;;;17.80;84.30;;;;;;5009976;28;20185;-73
2021/09/29 10:33:28;;;;;;;4.03;3.72;;;17.80;83.60;;;;;;5015259;28;20180;-73
2021/09/29 10:44:31;;;;;;;3.88;3.67;;;17.70;83.90;;;;;;5010853;28;20188;-73
2021/09/29 10:50:03;;;;;;;3.35;3.15;;;17.50;84.20;;;;;;5008434;28;20252;-74
2021/09/29 10:52:39;;;;;;;3.67;3.35;;;17.40;85.00;;;;;;5004787;28;20553;-73
2021/09/29 11:30:39;;;;;;;3.95;3.65;;;17.10;84.50;;;;;;5016208;28;20187;-73
2021/09/29 11:33:22;;;;;;;4.57;4.15;;;17.00;85.00;;;;;;5005667;28;20243;-73
2021/09/29 12:15:03;;;;;;;6.45;5.05;;;17.40;83.90;;;;;;4925129;29;20828;-73
2021/09/29 12:17:35;;;;;;;4.97;4.65;;;17.40;84.50;;;;;;4922311;29;20188;-73
2021/09/29 12:20:14;;;;;;;4.93;4.55;;;17.30;83.80;;;;;;4919797;29;20223;-73
2021/09/29 12:22:49;;;;;;;6.88;5.00;;;17.30;84.10;;;;;;4914154;29;20334;-72
2021/09/29 12:30:54;;;;;;;7.53;6.18;;;17.70;84.20;;;;;;4881904;29;20235;-73
2021/09/29 12:33:45;;;;;;;6.10;5.35;;;17.80;84.60;;;;;;4911914;29;20207;-73
2021/09/29 12:36:15;;;;;;;8.27;5.50;;;18.00;83.80;;;;;;4913465;29;20210;-73
2021/09/29 12:38:51;;;;;;;8.60;6.80;;;18.00;83.10;;;;;;4913363;29;20959;-74
2021/09/29 12:41:17;;;;;;;11.52;6.78;;;18.10;83.00;;;;;;4912095;29;20248;-74
2021/09/29 12:43:43;;;;;;;8.63;6.15;;;18.10;83.50;;;;;;4917968;29;20196;-72
2021/09/29 12:46:13;;;;;;;7.95;6.13;;;18.10;83.00;;;;;;4933423;29;20183;-73
2021/09/29 12:48:42;;;;;;;10.65;6.40;;;18.20;82.80;;;;;;4952580;28;20299;-73
2021/09/29 12:51:12;;;;;;;8.88;6.72;;;18.20;82.70;;;;;;5017604;28;20177;-74
2021/09/29 12:54:01;;;;;;;9.00;6.53;;;18.30;82.90;;;;;;5011416;28;20866;-74
2021/09/29 12:56:23;;;;;;;12.25;6.28;;;18.50;82.60;;;;;;5010803;28;20193;-73
2021/09/29 12:58:49;;;;;;;9.93;7.03;;;18.50;81.90;;;;;;5018909;28;20203;-73
2021/09/29 13:01:15;;;;;;;9.88;7.55;;;18.60;82.60;;;;;;5018349;28;21216;-74
2021/09/29 13:03:42;;;;;;;8.20;7.07;;;18.70;82.60;;;;;;5015804;28;20222;-74
2021/09/29 13:06:10;;;;;;;10.05;6.45;;;18.70;82.10;;;;;;5021989;28;20196;-73
2021/09/29 13:08:36;;;;;;;7.85;7.05;;;18.60;81.80;;;;;;5014900;28;20204;-74
2021/09/29 13:11:02;;;;;;;10.95;7.40;;;18.50;82.00;;;;;;5016024;28;20195;-74
2021/09/29 13:13:30;;;;;;;7.35;6.57;;;18.50;82.20;;;;;;5012058;28;20231;-73
2021/09/29 13:15:59;;;;;;;9.15;6.72;;;18.30;81.90;;;;;;5020047;28;20180;-73
2021/09/29 13:21:01;;;;;;;9.32;7.78;;;18.20;82.80;;;;;;5017389;28;20176;-72
2021/09/29 13:23:40;;;;;;;7.47;6.88;;;18.30;83.20;;;;;;5010945;28;20652;-73
2021/09/29 13:36:46;;;;;;;6.95;6.35;;;19.10;80.50;;;;;;5015932;28;20195;-73
2021/09/29 13:39:17;;;;;;;9.48;7.57;;;19.10;80.10;;;;;;5018415;28;20193;-73
2021/09/29 13:41:44;;;;;;;7.53;6.20;;;19.30;80.90;;;;;;5012581;28;20223;-73
2021/09/29 13:44:11;;;;;;;9.13;6.93;;;19.80;79.80;;;;;;5016820;28;20258;-73
2021/09/29 13:46:38;;;;;;;8.38;7.32;;;20.30;79.60;;;;;;5012849;28;20181;-74
2021/09/29 13:49:07;;;;;;;8.60;6.68;;;20.80;78.10;;;;;;5017303;28;20303;-73
2021/09/29 13:51:37;;;;;;;8.27;6.20;;;21.10;76.20;;;;;;5016601;28;20567;-75
2021/09/29 13:54:09;;;;;;;7.20;6.45;;;21.50;75.90;;;;;;5014855;28;20184;-76
2021/09/29 14:29:26;;;;;;;5.75;5.25;;;19.00;79.70;;;;;;5014547;28;20227;-73
2021/09/29 14:34:24;;;;;;;5.32;4.82;;;18.60;79.10;;;;;;5008590;28;20183;-73
2021/09/29 14:36:50;;;;;;;7.35;5.97;;;18.50;79.90;;;;;;4992001;28;20280;-74
2021/09/29 14:39:16;;;;;;;7.53;6.28;;;18.40;79.90;;;;;;5014591;28;20204;-73
2021/09/29 14:41:42;;;;;;;6.95;6.25;;;18.40;80.70;;;;;;5019321;28;20195;-74
2021/09/29 14:44:08;;;;;;;6.03;5.43;;;18.50;80.50;;;;;;5018377;28;20248;-73
2021/09/29 14:46:34;;;;;;;9.30;6.38;;;18.50;80.10;;;;;;5017997;28;20185;-74
2021/09/29 14:49:01;;;;;;;6.25;5.65;;;18.60;79.90;;;;;;5017200;28;20212;-74
2021/09/29 14:51:27;;;;;;;6.22;5.72;;;18.60;79.80;;;;;;5013893;28;20551;-74
2021/09/29 14:53:55;;;;;;;7.95;6.18;;;18.60;79.40;;;;;;5018964;28;20196;-74
2021/09/29 14:56:22;;;;;;;7.25;6.05;;;18.50;79.90;;;;;;5012661;28;20188;-73
2021/09/29 14:58:48;;;;;;;6.18;5.65;;;18.30;79.80;;;;;;5015803;28;20209;-75
2021/09/29 15:01:14;;;;;;;8.77;6.60;;;18.20;80.40;;;;;;5013276;28;20210;-75
2021/09/29 15:03:42;;;;;;;6.38;5.82;;;18.10;81.00;;;;;;5011742;28;20195;-74
2021/09/29 15:06:08;;;;;;;6.70;6.07;;;17.90;81.10;;;;;;5016513;28;20189;-74
2021/09/29 15:08:41;;;;;;;9.30;6.38;;;17.70;81.70;;;;;;5016094;28;20232;-76
2021/09/29 15:11:08;;;;;;;6.30;5.72;;;17.60;82.00;;;;;;5014543;28;20263;-75
2021/09/29 15:13:40;;;;;;;6.70;6.03;;;17.40;82.90;;;;;;5014691;28;20193;-75
2021/09/29 15:16:10;;;;;;;6.32;5.68;;;17.20;83.20;;;;;;5011692;28;20187;-73
2021/09/29 15:24:34;;;;;;;6.85;6.22;;;16.70;84.60;;;;;;4964449;28;20177;-75
2021/09/29 15:48:51;;;;;;;7.55;5.95;;;16.20;86.30;;;;;;4904671;29;21070;-74
2021/09/29 16:01:48;;;;;;;8.70;6.97;;;15.60;87.90;;;;;;4948216;28;20261;-73
2021/09/29 16:36:06;;;;;;;7.10;6.15;;;15.20;89.30;;;;;;5009592;28;20700;-72
2021/09/29 16:38:31;;;;;;;8.52;6.13;;;15.10;89.60;;;;;;5009070;28;20184;-73
2021/09/29 16:40:57;;;;;;;8.35;5.95;;;15.10;89.60;;;;;;5010464;28;20856;-73
2021/09/29 16:43:23;;;;;;;7.53;6.50;;;15.10;89.10;;;;;;5013107;28;20243;-75
2021/09/29 16:45:49;;;;;;;8.90;7.13;;;15.10;89.30;;;;;;5010547;28;20267;-75
2021/09/29 16:48:17;;;;;;;7.32;6.47;;;15.10;89.40;;;;;;5011209;28;20216;-73
2021/09/29 16:53:32;;;;;;;7.28;6.03;;;15.20;89.80;;;;;;5010157;28;20316;-74
2021/09/29 16:55:59;;;;;;;6.53;5.75;;;15.20;89.50;;;;;;5013396;28;20284;-74
2021/09/29 16:58:27;;;;;;;7.55;6.03;;;15.10;89.00;;;;;;5006627;28;20194;-74
2021/09/29 17:03:22;;;;;;;7.60;5.90;;;15.10;89.20;;;;;;5012178;28;20589;-75
2021/09/29 17:05:48;;;;;;;5.68;5.15;;;15.10;89.50;;;;;;5012047;28;20196;-73
2021/09/29 17:08:14;;;;;;;7.10;5.60;;;15.10;89.40;;;;;;5011363;28;20208;-74
2021/09/29 17:10:40;;;;;;;5.75;5.15;;;15.10;89.60;;;;;;5011192;28;20188;-75
2021/09/29 17:13:06;;;;;;;6.75;4.25;;;15.10;89.40;;;;;;5008214;28;20287;-75
2021/09/29 17:15:35;;;;;;;5.03;4.50;;;15.00;89.60;;;;;;5007288;28;20730;-74
2021/09/29 17:18:01;;;;;;;5.45;4.22;;;15.00;89.70;;;;;;5002951;28;21118;-75
2021/09/29 17:20:27;;;;;;;4.82;4.32;;;15.00;89.80;;;;;;5012693;28;20306;-75
2021/09/29 17:22:58;;;;;;;5.97;4.72;;;15.00;90.10;;;;;;5005291;28;20272;-73
2021/09/29 17:25:28;;;;;;;4.50;4.00;;;15.00;89.70;;;;;;5015750;28;20268;-73